Time;durP1;ratioP1;P1;durP2;ratioP2;P2;SDS_P1;SDS_P2;PMS_P1;PMS_P2;Temp;Humidity;BMP_temperature;BMP_pressure;BME280_temperature;BME280_humidity;BME280_pressure;Samples;Min_cycle;Max_cycle;Signal;HPM_P1;HPM_P2
2023/12/31 00:01:27;;;;;;;76.70;32.95;;;;;;;6.04;100.00;94694.16;5096110;28;20027;-84
2023/12/31 00:03:52;;;;;;;86.80;36.67;;;;;;;6.03;100.00;94698.56;5079203;28;20035;-85
2023/12/31 00:06:18;;;;;;;85.35;36.85;;;;;;;6.03;100.00;94689.97;5079586;28;20027;-85
2023/12/31 00:08:43;;;;;;;74.07;33.95;;;;;;;6.11;100.00;94684.41;5095653;28;20050;-85
2023/12/31 00:11:10;;;;;;;73.18;32.30;;;;;;;6.17;100.00;94683.47;5073689;28;20028;-85
2023/12/31 00:13:35;;;;;;;82.65;33.35;;;;;;;6.14;100.00;94685.75;5075551;28;20101;-85
2023/12/31 00:16:00;;;;;;;74.45;32.80;;;;;;;6.13;100.00;94687.56;5076589;28;20021;-85
2023/12/31 00:18:26;;;;;;;86.95;36.88;;;;;;;6.15;100.00;94689.94;5076613;28;20032;-85
2023/12/31 00:20:51;;;;;;;311.02;48.50;;;;;;;6.15;100.00;94689.94;5075698;28;20429;-85
2023/12/31 00:23:17;;;;;;;229.88;49.10;;;;;;;6.09;100.00;94686.44;5058925;28;20090;-85
2023/12/31 00:25:42;;;;;;;529.92;58.70;;;;;;;5.97;100.00;94691.66;5075346;28;20046;-85
2023/12/31 00:28:08;;;;;;;117.60;40.40;;;;;;;6.07;100.00;94673.69;5075437;28;20021;-85
2023/12/31 00:30:34;;;;;;;82.35;38.42;;;;;;;6.05;100.00;94683.53;5075399;28;20111;-85
2023/12/31 00:32:59;;;;;;;100.30;41.85;;;;;;;6.04;100.00;94681.94;5075403;28;20081;-85
2023/12/31 00:35:25;;;;;;;97.65;41.15;;;;;;;6.03;100.00;94671.75;5075350;28;20028;-85
2023/12/31 00:37:50;;;;;;;188.88;42.92;;;;;;;5.81;100.00;94667.16;5086843;28;20028;-85
2023/12/31 00:40:16;;;;;;;112.63;36.30;;;;;;;5.61;100.00;94664.94;5096637;28;20460;-85
2023/12/31 00:42:41;;;;;;;69.57;30.85;;;;;;;5.78;100.00;94663.19;5096574;28;20024;-85
2023/12/31 00:45:08;;;;;;;72.03;30.50;;;;;;;5.60;100.00;94658.94;5081329;28;20429;-85
2023/12/31 00:47:33;;;;;;;56.47;25.92;;;;;;;5.82;100.00;94660.13;5098916;28;20055;-85
2023/12/31 00:49:59;;;;;;;56.95;24.63;;;;;;;5.66;100.00;94652.03;5099559;28;20079;-84
2023/12/31 00:52:24;;;;;;;112.80;40.53;;;;;;;5.86;100.00;94663.84;5082840;28;20085;-85
2023/12/31 00:54:50;;;;;;;89.05;39.40;;;;;;;6.07;100.00;94650.25;5099431;28;20030;-85
2023/12/31 00:57:16;;;;;;;77.88;33.83;;;;;;;5.76;100.00;94644.44;5099276;28;20097;-85
2023/12/31 00:59:42;;;;;;;76.32;34.58;;;;;;;5.99;100.00;94645.38;5079061;28;20441;-85
2023/12/31 01:02:08;;;;;;;66.03;30.85;;;;;;;6.03;100.00;94646.56;5079059;28;20077;-85
2023/12/31 01:04:33;;;;;;;88.97;38.10;;;;;;;6.02;100.00;94650.16;5079277;28;20127;-85
2023/12/31 01:06:59;;;;;;;868.75;75.90;;;;;;;5.89;100.00;94653.78;5079048;28;20021;-85
2023/12/31 01:09:24;;;;;;;99.20;40.22;;;;;;;5.69;100.00;94659.34;5064684;28;20074;-85
2023/12/31 01:11:49;;;;;;;91.25;37.08;;;;;;;5.76;100.00;94659.25;5078757;28;20430;-85
2023/12/31 01:14:15;;;;;;;76.72;35.17;;;;;;;5.73;100.00;94660.47;5078816;28;20073;-85
2023/12/31 01:16:40;;;;;;;98.13;41.65;;;;;;;5.45;100.00;94650.81;5062117;28;20032;-85
2023/12/31 01:19:06;;;;;;;75.50;33.80;;;;;;;5.60;100.00;94653.72;5087817;28;20042;-85
2023/12/31 01:21:31;;;;;;;70.75;30.83;;;;;;;5.75;100.00;94653.25;5100029;28;20127;-85
2023/12/31 01:23:57;;;;;;;71.20;31.33;;;;;;;5.96;100.00;94652.88;5098918;28;20023;-85
2023/12/31 01:26:22;;;;;;;74.72;31.05;;;;;;;5.89;100.00;94642.59;5098850;28;20027;-85
2023/12/31 01:28:47;;;;;;;57.00;26.30;;;;;;;6.02;100.00;94647.53;5080078;28;20042;-85
2023/12/31 01:31:19;;;;;;;62.42;29.42;;;;;;;6.08;100.00;94645.84;5078418;28;20028;-85
2023/12/31 01:33:45;;;;;;;50.83;24.05;;;;;;;6.19;100.00;94639.81;5078412;28;20461;-85
2023/12/31 01:36:15;;;;;;;50.05;23.70;;;;;;;6.27;100.00;94632.66;5061946;28;20029;-85
2023/12/31 01:38:41;;;;;;;51.08;24.00;;;;;;;6.20;100.00;94627.59;5078107;28;20032;-85
2023/12/31 01:41:08;;;;;;;38.10;18.83;;;;;;;6.36;100.00;94629.44;5078327;28;20039;-85
2023/12/31 01:43:35;;;;;;;39.58;18.35;;;;;;;6.43;100.00;94633.72;5078483;28;20036;-85
2023/12/31 01:46:01;;;;;;;29.02;15.15;;;;;;;6.53;100.00;94633.88;5062378;28;20032;-85
2023/12/31 01:48:27;;;;;;;31.35;14.50;;;;;;;6.49;100.00;94630.19;5060403;28;20456;-85
2023/12/31 01:50:53;;;;;;;31.23;15.63;;;;;;;6.54;100.00;94626.88;5077219;28;20166;-85
2023/12/31 01:53:19;;;;;;;24.05;12.77;;;;;;;6.60;100.00;94631.94;5076825;28;20111;-85
2023/12/31 01:55:45;;;;;;;20.40;9.50;;;;;;;6.74;100.00;94618.59;5077301;28;20068;-86
2023/12/31 01:58:11;;;;;;;13.50;7.88;;;;;;;6.87;100.00;94617.50;5077743;28;20067;-85
2023/12/31 02:00:36;;;;;;;12.80;6.97;;;;;;;6.99;100.00;94617.41;5076966;28;20475;-85
2023/12/31 02:03:04;;;;;;;23.65;10.45;;;;;;;6.72;100.00;94612.84;5066968;28;20648;-85
2023/12/31 02:05:29;;;;;;;13.73;7.95;;;;;;;6.67;100.00;94612.75;5083613;28;20051;-86
2023/12/31 02:07:55;;;;;;;11.85;6.93;;;;;;;6.72;100.00;94603.22;5090069;28;20028;-86
2023/12/31 02:10:20;;;;;;;12.95;6.85;;;;;;;6.73;100.00;94602.19;5060255;28;20079;-85
2023/12/31 02:12:46;;;;;;;10.43;6.20;;;;;;;6.86;100.00;94595.88;5076767;28;20114;-85
2023/12/31 02:15:12;;;;;;;9.60;5.50;;;;;;;6.92;100.00;94596.72;5076588;28;20035;-85
2023/12/31 02:17:37;;;;;;;11.02;5.18;;;;;;;6.78;100.00;94594.44;5076306;28;20346;-86
2023/12/31 02:20:04;;;;;;;10.52;5.82;;;;;;;6.96;100.00;94594.44;5076566;28;20501;-85
2023/12/31 02:22:30;;;;;;;9.38;5.20;;;;;;;6.88;100.00;94591.19;5076455;28;20111;-85
2023/12/31 02:24:58;;;;;;;6.32;4.07;;;;;;;6.97;100.00;94589.00;5079413;28;20056;-85
2023/12/31 02:27:24;;;;;;;8.00;4.72;;;;;;;7.18;100.00;94590.09;5096458;28;20024;-85
2023/12/31 02:29:49;;;;;;;9.20;4.50;;;;;;;7.21;100.00;94584.38;5079999;28;20444;-85
2023/12/31 02:32:15;;;;;;;8.60;4.97;;;;;;;7.24;100.00;94579.72;5064723;28;20025;-85
2023/12/31 02:34:44;;;;;;;7.55;4.50;;;;;;;7.24;100.00;94577.88;5077495;28;20032;-85
2023/12/31 02:37:10;;;;;;;10.30;6.38;;;;;;;7.12;100.00;94572.00;5076027;28;20050;-85
2023/12/31 02:39:35;;;;;;;12.00;5.63;;;;;;;7.11;100.00;94567.84;5077707;28;20028;-85
2023/12/31 02:42:01;;;;;;;10.05;5.50;;;;;;;7.28;100.00;94567.78;5084597;28;20498;-85
2023/12/31 02:44:29;;;;;;;9.82;5.47;;;;;;;7.39;100.00;94561.69;5076083;28;20085;-85
2023/12/31 02:48:51;;;;;;;10.07;5.28;;;;;;;7.44;100.00;94555.75;5156146;27;20400;-85
2023/12/31 02:51:17;;;;;;;10.02;4.20;;;;;;;7.53;100.00;94556.09;5154781;27;20031;-85
2023/12/31 02:53:42;;;;;;;8.13;4.45;;;;;;;7.59;100.00;94555.91;5136000;27;20500;-85
2023/12/31 02:56:07;;;;;;;8.68;3.80;;;;;;;7.48;100.00;94549.81;5154477;27;20440;-85
2023/12/31 02:58:33;;;;;;;6.93;3.80;;;;;;;7.54;100.00;94547.25;5154453;27;20023;-85
2023/12/31 03:01:00;;;;;;;4.50;3.22;;;;;;;7.58;100.00;94548.31;5154452;27;20432;-85
2023/12/31 03:03:25;;;;;;;6.05;3.58;;;;;;;7.50;100.00;94546.94;5154403;27;20039;-85
2023/12/31 03:05:50;;;;;;;5.22;3.47;;;;;;;7.48;100.00;94538.56;5137291;27;20510;-85
2023/12/31 03:08:16;;;;;;;5.85;3.35;;;;;;;7.49;100.00;94540.94;5154086;27;20026;-85
2023/12/31 03:10:41;;;;;;;6.50;2.97;;;;;;;7.41;100.00;94527.56;5154200;27;20046;-85
2023/12/31 03:13:07;;;;;;;10.82;3.60;;;;;;;7.31;100.00;94529.00;5154143;27;20068;-85
2023/12/31 03:15:41;;;;;;;5.57;3.08;;;;;;;7.02;100.00;94530.97;5154197;27;20023;-85
2023/12/31 03:18:06;;;;;;;5.60;3.25;;;;;;;6.91;100.00;94535.25;5137027;27;20030;-85
2023/12/31 03:20:31;;;;;;;5.47;3.20;;;;;;;7.04;100.00;94536.75;5137121;27;20030;-85
2023/12/31 03:22:57;;;;;;;4.57;3.10;;;;;;;6.89;100.00;94532.09;5155196;27;20354;-85
2023/12/31 03:25:22;;;;;;;7.75;3.78;;;;;;;6.80;100.00;94531.72;5153970;27;20091;-85
2023/12/31 03:27:48;;;;;;;8.50;3.10;;;;;;;7.02;100.00;94531.75;5154884;27;20030;-85
2023/12/31 03:30:13;;;;;;;5.88;3.20;;;;;;;7.00;100.00;94525.19;5153938;27;20037;-85
2023/12/31 03:32:39;;;;;;;4.97;2.75;;;;;;;7.04;100.00;94531.53;5136468;27;20039;-85
2023/12/31 03:35:05;;;;;;;5.38;3.17;;;;;;;7.22;100.00;94523.41;5136781;27;20416;-85
2023/12/31 03:37:30;;;;;;;10.02;3.40;;;;;;;7.25;100.00;94529.19;5153360;27;20058;-85
2023/12/31 03:39:56;;;;;;;6.90;3.63;;;;;;;7.00;100.00;94527.81;5153658;27;20030;-85
2023/12/31 03:42:22;;;;;;;6.45;3.00;;;;;;;6.97;100.00;94523.09;5153700;27;20034;-85
2023/12/31 03:44:47;;;;;;;6.70;3.17;;;;;;;7.11;100.00;94507.91;5153604;27;20038;-85
2023/12/31 03:47:13;;;;;;;4.45;2.92;;;;;;;6.78;100.00;94515.56;5153284;27;20431;-85
2023/12/31 03:49:38;;;;;;;5.93;3.00;;;;;;;6.73;100.00;94507.66;5136486;27;20389;-85
2023/12/31 03:52:04;;;;;;;5.88;3.47;;;;;;;6.68;100.00;94507.59;5136318;27;20031;-84
2023/12/31 03:54:30;;;;;;;4.47;2.78;;;;;;;6.41;100.00;94509.03;5153386;27;20027;-85
2023/12/31 03:56:55;;;;;;;4.35;3.13;;;;;;;6.39;100.00;94502.47;5123450;27;20031;-85
2023/12/31 03:59:21;;;;;;;4.43;2.92;;;;;;;6.35;100.00;94521.16;5120330;28;20031;-85
2023/12/31 04:01:46;;;;;;;12.15;3.83;;;;;;;6.47;100.00;94520.31;5118897;28;20031;-85
2023/12/31 04:04:14;;;;;;;7.25;4.15;;;;;;;6.38;100.00;94521.72;5118803;28;20359;-85
2023/12/31 04:06:43;;;;;;;5.97;3.40;;;;;;;6.46;100.00;94522.13;5118622;28;20058;-85
2023/12/31 04:09:10;;;;;;;6.72;3.33;;;;;;;6.44;100.00;94518.16;5118964;28;20112;-85
2023/12/31 04:11:36;;;;;;;6.88;3.85;;;;;;;6.50;100.00;94515.41;5118753;28;20067;-85
2023/12/31 04:14:02;;;;;;;8.60;4.95;;;;;;;6.59;100.00;94523.59;5119834;28;20038;-85
2023/12/31 04:16:27;;;;;;;10.02;4.32;;;;;;;6.71;100.00;94528.72;5119745;28;20394;-85
2023/12/31 04:18:52;;;;;;;8.18;4.40;;;;;;;6.86;100.00;94525.53;5119609;28;20032;-85
2023/12/31 04:21:18;;;;;;;7.65;4.70;;;;;;;6.93;100.00;94523.56;5118574;28;20038;-85
2023/12/31 04:23:43;;;;;;;10.30;5.30;;;;;;;7.00;100.00;94517.38;5118504;28;20035;-85
2023/12/31 04:26:12;;;;;;;10.70;4.82;;;;;;;7.00;100.00;94525.19;5101611;28;20027;-85
2023/12/31 04:28:37;;;;;;;10.63;4.75;;;;;;;6.85;100.00;94518.00;5119435;28;20062;-85
2023/12/31 04:31:03;;;;;;;7.93;4.72;;;;;;;6.87;100.00;94518.53;5118348;28;20111;-85
2023/12/31 04:33:28;;;;;;;6.68;4.30;;;;;;;6.83;100.00;94518.22;5118295;28;20026;-84
2023/12/31 04:35:54;;;;;;;8.30;4.82;;;;;;;6.72;100.00;94526.91;5119328;28;20482;-84
2023/12/31 04:38:19;;;;;;;12.60;6.10;;;;;;;6.67;100.00;94516.44;5125414;27;20037;-84
2023/12/31 04:40:45;;;;;;;6.93;4.13;;;;;;;6.21;100.00;94518.06;5140087;27;20027;-84
2023/12/31 04:43:10;;;;;;;4.88;3.35;;;;;;;5.94;100.00;94504.84;5138611;27;20049;-84
2023/12/31 04:45:36;;;;;;;7.03;4.22;;;;;;;6.02;100.00;94499.28;5139769;27;20033;-84
2023/12/31 04:48:01;;;;;;;8.18;5.18;;;;;;;5.51;100.00;94488.75;5138268;27;20031;-84
2023/12/31 04:50:26;;;;;;;14.13;7.35;;;;;;;5.42;100.00;94485.75;5138415;27;20031;-84
2023/12/31 04:52:52;;;;;;;13.35;6.75;;;;;;;5.29;100.00;94480.81;5121489;27;20038;-84
2023/12/31 04:55:17;;;;;;;15.68;6.60;;;;;;;5.34;100.00;94473.13;5138467;27;20034;-84
2023/12/31 04:57:43;;;;;;;15.65;7.13;;;;;;;5.20;100.00;94473.41;5138193;27;20034;-84
2023/12/31 05:00:09;;;;;;;18.45;8.10;;;;;;;5.41;100.00;94480.78;5138327;27;20038;-84
2023/12/31 05:02:34;;;;;;;19.20;8.38;;;;;;;5.06;100.00;94482.47;5139355;27;20432;-84
2023/12/31 05:05:02;;;;;;;12.93;6.07;;;;;;;5.02;100.00;94473.53;5121197;27;20043;-84
2023/12/31 05:07:28;;;;;;;32.60;14.73;;;;;;;4.72;100.00;94477.88;5137999;27;20034;-84
2023/12/31 05:09:53;;;;;;;17.65;7.90;;;;;;;4.90;100.00;94471.75;5137665;27;20110;-84
2023/12/31 05:12:18;;;;;;;17.48;8.77;;;;;;;4.85;100.00;94469.03;5137472;27;20031;-85
2023/12/31 05:14:45;;;;;;;15.23;7.47;;;;;;;4.93;100.00;94470.50;5139170;27;20055;-84
2023/12/31 05:17:10;;;;;;;11.25;6.90;;;;;;;5.01;100.00;94469.34;5137818;27;20027;-85
2023/12/31 05:19:35;;;;;;;14.85;6.57;;;;;;;5.01;100.00;94456.38;5137719;27;20469;-84
2023/12/31 05:22:01;;;;;;;14.73;7.13;;;;;;;5.07;100.00;94455.47;5120884;27;20088;-84
2023/12/31 05:24:26;;;;;;;12.65;7.00;;;;;;;4.98;100.00;94456.84;5137668;27;20084;-84
2023/12/31 05:26:52;;;;;;;9.85;6.18;;;;;;;5.12;100.00;94465.19;5137672;27;20058;-85
2023/12/31 05:29:17;;;;;;;9.75;6.25;;;;;;;5.09;100.00;94454.22;5120434;27;20058;-84
2023/12/31 05:31:42;;;;;;;12.38;6.68;;;;;;;5.15;100.00;94464.72;5120745;27;20078;-84
2023/12/31 05:34:09;;;;;;;14.88;7.47;;;;;;;5.01;100.00;94457.16;5137658;27;20038;-84
2023/12/31 05:36:34;;;;;;;12.35;6.72;;;;;;;4.84;100.00;94444.09;5120776;27;20451;-84
2023/12/31 05:39:00;;;;;;;19.45;7.38;;;;;;;4.79;100.00;94459.59;5137742;27;20031;-84
2023/12/31 05:41:25;;;;;;;11.77;6.80;;;;;;;4.73;100.00;94453.50;5137549;27;20038;-84
2023/12/31 05:43:51;;;;;;;13.55;7.50;;;;;;;4.94;100.00;94459.91;5137460;27;20351;-84
2023/12/31 05:46:18;;;;;;;17.33;8.80;;;;;;;5.24;100.00;94455.53;5138678;27;20023;-84
2023/12/31 05:48:44;;;;;;;12.57;7.75;;;;;;;5.18;100.00;94459.03;5136975;27;20027;-84
2023/12/31 05:51:09;;;;;;;14.45;7.85;;;;;;;5.06;100.00;94456.50;5137331;27;20030;-84
2023/12/31 05:53:35;;;;;;;11.18;6.68;;;;;;;5.09;100.00;94458.63;5120378;27;20499;-84
2023/12/31 05:56:00;;;;;;;18.80;8.25;;;;;;;5.05;100.00;94457.50;5137239;27;20026;-85
2023/12/31 05:58:26;;;;;;;14.20;7.47;;;;;;;5.05;100.00;94452.31;5137334;27;20026;-85
2023/12/31 06:00:51;;;;;;;12.65;7.63;;;;;;;5.15;100.00;94455.09;5120130;27;20030;-85
2023/12/31 06:03:17;;;;;;;14.85;6.80;;;;;;;5.13;100.00;94457.13;5137053;27;20455;-85
2023/12/31 06:05:43;;;;;;;13.27;7.50;;;;;;;4.93;100.00;94454.91;5137455;27;20042;-85
2023/12/31 06:08:08;;;;;;;15.18;7.90;;;;;;;4.85;100.00;94450.88;5119957;27;20027;-85
2023/12/31 06:10:33;;;;;;;13.32;7.32;;;;;;;4.81;100.00;94447.16;5136966;27;20344;-85
2023/12/31 06:12:59;;;;;;;20.45;9.25;;;;;;;4.82;100.00;94433.16;5137013;27;20023;-85
2023/12/31 06:15:24;;;;;;;12.23;7.30;;;;;;;4.77;100.00;94430.47;5136906;27;20121;-85
2023/12/31 06:17:50;;;;;;;15.77;7.47;;;;;;;4.93;100.00;94427.16;5118227;27;20019;-86
2023/12/31 06:20:15;;;;;;;17.30;8.23;;;;;;;4.94;100.00;94430.53;5111139;27;20023;-86
2023/12/31 06:22:41;;;;;;;16.85;9.13;;;;;;;4.64;100.00;94418.50;5137637;27;20026;-86
2023/12/31 06:25:07;;;;;;;23.05;9.50;;;;;;;4.57;100.00;94417.88;5119900;27;20449;-86
2023/12/31 06:27:33;;;;;;;12.93;7.40;;;;;;;4.38;100.00;94421.38;5136556;27;20062;-85
2023/12/31 06:29:58;;;;;;;16.20;7.53;;;;;;;4.15;100.00;94414.38;5136755;27;20333;-86
2023/12/31 06:32:23;;;;;;;13.85;7.32;;;;;;;4.28;100.00;94415.19;5136671;27;20027;-86
2023/12/31 06:34:50;;;;;;;16.25;8.10;;;;;;;4.15;100.00;94414.38;5136658;27;20428;-86
2023/12/31 06:37:15;;;;;;;16.75;8.23;;;;;;;4.16;100.00;94415.16;5119709;28;20027;-86
2023/12/31 06:39:44;;;;;;;85.97;12.77;;;;;;;4.08;100.00;94411.91;5136842;27;20080;-86
2023/12/31 06:42:10;;;;;;;550.22;34.80;;;;;;;3.77;100.00;94402.63;5137676;27;20027;-85
2023/12/31 06:44:39;;;;;;;18.08;8.52;;;;;;;3.72;100.00;94411.06;5118274;28;20030;-85
2023/12/31 06:47:04;;;;;;;20.02;8.95;;;;;;;3.63;100.00;94410.59;5119228;27;20043;-86
2023/12/31 06:49:29;;;;;;;13.60;7.75;;;;;;;3.61;100.00;94415.22;5136605;28;20035;-85
2023/12/31 06:51:55;;;;;;;17.17;9.07;;;;;;;3.66;100.00;94404.97;5136416;28;20023;-85
2023/12/31 06:54:20;;;;;;;14.40;8.15;;;;;;;3.77;100.00;94403.41;5137399;28;20555;-86
2023/12/31 06:56:46;;;;;;;15.80;7.70;;;;;;;3.81;100.00;94407.13;5136285;28;20027;-86
2023/12/31 06:59:13;;;;;;;16.95;8.52;;;;;;;3.99;100.00;94405.47;5136575;28;20027;-85
2023/12/31 07:01:38;;;;;;;17.13;8.45;;;;;;;4.02;100.00;94402.44;5137508;27;20440;-86
2023/12/31 07:04:04;;;;;;;13.80;8.07;;;;;;;4.01;100.00;94405.25;5136526;28;20027;-85
2023/12/31 07:06:29;;;;;;;17.52;7.95;;;;;;;4.14;100.00;94412.00;5119402;28;20420;-86
2023/12/31 07:08:54;;;;;;;18.48;7.75;;;;;;;4.08;100.00;94411.09;5118990;28;20019;-85
2023/12/31 07:11:20;;;;;;;22.73;10.07;;;;;;;4.33;100.00;94413.50;5136284;28;20035;-86
2023/12/31 07:13:45;;;;;;;20.55;11.00;;;;;;;4.53;100.00;94410.53;5119203;28;20413;-86
2023/12/31 07:16:14;;;;;;;15.73;9.48;;;;;;;4.58;100.00;94417.63;5136198;27;20027;-86
2023/12/31 07:18:40;;;;;;;21.60;10.27;;;;;;;4.73;100.00;94417.16;5136384;28;20075;-86
2023/12/31 07:21:05;;;;;;;22.83;11.60;;;;;;;4.90;100.00;94422.44;5119300;28;20423;-86
2023/12/31 07:23:31;;;;;;;21.15;10.70;;;;;;;4.94;100.00;94422.75;5136421;28;20034;-86
2023/12/31 07:25:57;;;;;;;23.25;11.73;;;;;;;5.07;100.00;94429.50;5137249;28;20424;-85
2023/12/31 07:28:22;;;;;;;21.05;11.25;;;;;;;5.46;100.00;94439.28;5118990;28;20180;-85
2023/12/31 07:30:49;;;;;;;20.15;10.55;;;;;;;5.62;100.00;94432.56;5137180;27;20034;-85
2023/12/31 07:33:14;;;;;;;23.27;10.45;;;;;;;5.72;100.00;94426.75;5137303;27;20051;-85
2023/12/31 07:35:41;;;;;;;13.20;7.57;;;;;;;5.90;100.00;94426.50;5140049;27;20127;-85
2023/12/31 07:38:08;;;;;;;15.68;7.30;;;;;;;6.10;100.00;94432.31;5140999;27;20048;-85
2023/12/31 07:40:34;;;;;;;16.40;7.85;;;;;;;6.26;100.00;94436.72;5139895;27;20385;-85
2023/12/31 07:42:59;;;;;;;12.18;6.18;;;;;;;6.42;100.00;94435.13;5139898;27;20027;-85
2023/12/31 07:45:25;;;;;;;13.15;7.18;;;;;;;6.40;100.00;94431.19;5140902;27;20027;-86
2023/12/31 07:47:53;;;;;;;14.15;7.03;;;;;;;6.58;100.00;94417.13;5140614;27;20027;-86
2023/12/31 07:50:18;;;;;;;11.25;6.30;;;;;;;6.68;100.00;94414.66;5139732;27;20034;-85
2023/12/31 07:52:44;;;;;;;12.38;6.13;;;;;;;6.85;100.00;94419.78;5139696;27;20031;-85
2023/12/31 07:55:10;;;;;;;13.38;8.20;;;;;;;6.93;100.00;94419.38;5139556;27;20029;-85
2023/12/31 07:57:36;;;;;;;13.82;7.35;;;;;;;6.65;100.00;94425.53;5140692;27;20348;-85
2023/12/31 08:00:04;;;;;;;14.85;7.93;;;;;;;6.86;100.00;94429.19;5138509;27;20058;-85
2023/12/31 08:02:30;;;;;;;13.02;7.65;;;;;;;6.61;100.00;94416.63;5119172;27;20035;-85
2023/12/31 08:04:55;;;;;;;11.90;7.20;;;;;;;6.99;100.00;94416.81;5137853;27;20035;-84
2023/12/31 08:07:21;;;;;;;15.40;7.65;;;;;;;7.01;100.00;94419.97;5139114;27;20344;-85
2023/12/31 08:09:46;;;;;;;11.15;6.72;;;;;;;6.89;100.00;94412.28;5140481;27;20134;-85
2023/12/31 08:12:12;;;;;;;16.90;6.78;;;;;;;7.22;100.00;94415.78;5139497;27;20053;-85
2023/12/31 08:14:38;;;;;;;17.85;8.13;;;;;;;7.34;100.00;94408.63;5139108;27;20031;-85
2023/12/31 08:17:03;;;;;;;16.08;7.38;;;;;;;7.62;100.00;94414.63;5139481;27;20068;-85
2023/12/31 08:19:29;;;;;;;11.20;6.70;;;;;;;7.96;100.00;94411.00;5139345;27;20364;-85
2023/12/31 08:21:54;;;;;;;13.63;7.07;;;;;;;8.20;100.00;94414.03;5140164;27;20031;-85
2023/12/31 08:24:21;;;;;;;11.25;6.80;;;;;;;8.30;100.00;94410.69;5140139;27;20356;-86
2023/12/31 08:26:47;;;;;;;12.52;7.20;;;;;;;8.46;100.00;94414.19;5138802;27;20027;-86
2023/12/31 08:29:12;;;;;;;17.95;8.77;;;;;;;8.49;100.00;94411.06;5122152;27;20445;-86
2023/12/31 08:31:38;;;;;;;14.93;7.80;;;;;;;8.68;100.00;94410.72;5139110;27;20037;-86
2023/12/31 08:34:03;;;;;;;11.85;6.95;;;;;;;8.79;100.00;94408.13;5118421;27;20121;-85
2023/12/31 08:36:29;;;;;;;7.47;4.50;;;;;;;8.79;100.00;94403.69;5122174;27;20393;-85
2023/12/31 08:38:55;;;;;;;10.40;5.75;;;;;;;8.86;100.00;94404.25;5138647;27;20023;-86
2023/12/31 08:41:20;;;;;;;11.32;5.80;;;;;;;8.92;100.00;94412.88;5138706;27;20031;-85
2023/12/31 08:43:46;;;;;;;13.82;6.13;;;;;;;8.89;100.00;94401.13;5138600;27;20037;-86
2023/12/31 08:46:11;;;;;;;12.65;7.13;;;;;;;8.87;100.00;94415.50;5139636;27;20035;-86
2023/12/31 08:48:37;;;;;;;13.82;7.70;;;;;;;8.86;100.00;94424.38;5139539;27;20031;-86
2023/12/31 08:51:03;;;;;;;10.02;6.25;;;;;;;8.90;100.00;94423.63;5121285;27;20043;-85
2023/12/31 08:53:35;;;;;;;12.20;7.47;;;;;;;8.87;100.00;94423.31;5138402;27;20426;-85
2023/12/31 08:56:04;;;;;;;13.77;7.22;;;;;;;8.73;100.00;94422.97;5138628;27;20023;-85
2023/12/31 08:58:29;;;;;;;14.63;6.25;;;;;;;8.96;100.00;94426.22;5138345;27;20034;-86
2023/12/31 09:00:56;;;;;;;10.40;5.18;;;;;;;9.00;100.00;94427.28;5138333;27;20030;-86
2023/12/31 09:03:22;;;;;;;10.27;6.10;;;;;;;9.02;100.00;94430.44;5121620;27;20039;-86
2023/12/31 09:05:52;;;;;;;11.90;6.32;;;;;;;8.94;100.00;94429.09;5121380;27;20031;-86
2023/12/31 09:08:17;;;;;;;11.55;6.70;;;;;;;8.91;100.00;94440.84;5139202;27;20411;-86
2023/12/31 09:10:43;;;;;;;13.30;6.72;;;;;;;9.06;100.00;94447.19;5138204;27;20058;-85
2023/12/31 09:13:09;;;;;;;9.30;5.93;;;;;;;9.14;100.00;94435.47;5121250;27;20433;-86
2023/12/31 09:15:36;;;;;;;9.40;5.32;;;;;;;9.29;100.00;94447.78;5121062;27;20031;-86
2023/12/31 09:18:02;;;;;;;10.27;5.72;;;;;;;9.24;100.00;94451.16;5138514;27;20019;-86
2023/12/31 09:20:27;;;;;;;14.90;6.32;;;;;;;9.33;100.00;94444.41;5120948;27;20026;-86
2023/12/31 09:22:53;;;;;;;12.07;6.97;;;;;;;9.37;100.00;94444.69;5121073;27;20434;-86
2023/12/31 09:25:22;;;;;;;11.68;4.82;;;;;;;9.34;100.00;94447.81;5137790;27;20023;-86
2023/12/31 09:27:48;;;;;;;11.15;6.80;;;;;;;9.41;100.00;94443.13;5137696;27;20026;-86
2023/12/31 09:30:14;;;;;;;10.43;7.03;;;;;;;9.59;100.00;94441.84;5137801;27;20329;-85
2023/12/31 09:32:41;;;;;;;13.02;6.80;;;;;;;9.64;100.00;94435.84;5138015;27;20095;-86
2023/12/31 09:35:07;;;;;;;12.95;7.00;;;;;;;9.74;100.00;94438.47;5138038;27;20027;-86
2023/12/31 09:37:34;;;;;;;13.07;7.18;;;;;;;9.79;100.00;94439.53;5137430;27;20030;-86
2023/12/31 09:40:00;;;;;;;14.77;7.95;;;;;;;9.53;100.00;94431.66;5137828;27;20443;-86
2023/12/31 09:42:33;;;;;;;12.43;7.07;;;;;;;9.80;100.00;94433.25;5138320;27;20027;-86
2023/12/31 09:45:04;;;;;;;13.32;7.72;;;;;;;10.13;100.00;94425.94;5137974;27;20031;-86
2023/12/31 09:47:31;;;;;;;13.10;7.47;;;;;;;10.12;100.00;94419.94;5120666;27;20381;-86
2023/12/31 09:49:57;;;;;;;10.82;4.10;;;;;;;10.23;100.00;94412.84;5137547;27;20122;-85
2023/12/31 09:52:28;;;;;;;12.88;7.20;;;;;;;10.53;100.00;94405.22;5138589;27;20099;-86
2023/12/31 09:54:54;;;;;;;16.42;7.18;;;;;;;10.68;100.00;94407.03;5120694;27;20031;-86
2023/12/31 09:57:20;;;;;;;13.52;6.78;;;;;;;10.77;100.00;94415.13;5119808;27;20023;-86
2023/12/31 09:59:48;;;;;;;10.05;6.05;;;;;;;10.83;100.00;94403.56;5120357;27;20038;-86
2023/12/31 10:02:22;;;;;;;11.95;5.60;;;;;;;10.71;100.00;94411.75;5137799;27;20073;-86
2023/12/31 10:04:49;;;;;;;9.23;5.45;;;;;;;10.83;100.00;94414.84;5137464;27;20030;-86
2023/12/31 10:07:15;;;;;;;5.70;3.55;;;;;;;10.33;100.00;94407.63;5119910;27;20027;-85
2023/12/31 10:09:41;;;;;;;7.20;3.53;;;;;;;10.44;100.00;94412.84;5117086;27;20489;-85
2023/12/31 10:12:09;;;;;;;5.93;3.58;;;;;;;10.70;100.00;94397.88;5137030;27;20030;-86
2023/12/31 10:14:35;;;;;;;7.05;2.97;;;;;;;10.66;100.00;94406.53;5136030;27;20026;-86
2023/12/31 10:17:00;;;;;;;6.20;3.60;;;;;;;10.64;100.00;94390.28;5119875;27;20019;-86
2023/12/31 10:19:26;;;;;;;6.18;3.53;;;;;;;10.63;100.00;94397.34;5136624;27;20030;-85
2023/12/31 10:21:52;;;;;;;5.95;2.85;;;;;;;10.54;100.00;94398.94;5136834;27;20027;-86
2023/12/31 10:24:30;;;;;;;5.10;2.90;;;;;;;10.30;100.00;94396.88;5137227;27;20416;-86
2023/12/31 10:27:05;;;;;;;7.57;2.92;;;;;;;10.06;100.00;94386.16;5119938;27;20035;-85
2023/12/31 10:29:33;;;;;;;6.35;3.03;;;;;;;10.19;100.00;94393.50;5120234;27;20027;-86
2023/12/31 10:31:59;;;;;;;4.75;2.80;;;;;;;10.23;100.00;94389.28;5137624;27;20027;-85
2023/12/31 10:34:24;;;;;;;5.50;2.95;;;;;;;10.38;100.00;94385.06;5137789;27;20029;-86
2023/12/31 10:37:01;;;;;;;3.22;2.40;;;;;;;10.31;100.00;94378.25;5136664;27;20030;-86
2023/12/31 10:39:27;;;;;;;6.43;2.95;;;;;;;10.26;100.00;94369.66;5136546;27;20076;-86
2023/12/31 10:41:58;;;;;;;6.32;3.10;;;;;;;10.16;100.00;94367.81;5136601;27;20034;-85
2023/12/31 10:44:24;;;;;;;4.90;3.00;;;;;;;10.22;100.00;94363.34;5136547;27;20038;-85
2023/12/31 10:46:52;;;;;;;6.70;2.80;;;;;;;10.43;100.00;94361.50;5136170;28;20117;-86
2023/12/31 10:49:21;;;;;;;7.10;3.70;;;;;;;10.60;100.00;94348.88;5119326;28;20035;-86
2023/12/31 10:51:47;;;;;;;6.63;3.10;;;;;;;10.64;100.00;94345.75;5115951;28;20074;-86
2023/12/31 10:54:23;;;;;;;6.30;3.25;;;;;;;10.63;100.00;94333.69;5131737;28;20095;-87
2023/12/31 10:56:51;;;;;;;8.00;3.08;;;;;;;10.60;100.00;94338.41;5136155;28;20023;-87
2023/12/31 10:59:17;;;;;;;4.55;2.92;;;;;;;10.43;100.00;94322.22;5136624;28;20076;-87
2023/12/31 11:01:43;;;;;;;4.32;2.85;;;;;;;10.41;100.00;94322.50;5136689;28;20343;-86
2023/12/31 11:04:10;;;;;;;4.88;3.42;;;;;;;10.67;100.00;94317.16;5136582;28;20022;-87
2023/12/31 11:06:38;;;;;;;5.63;3.03;;;;;;;10.68;100.00;94313.47;5119685;28;20027;-87
2023/12/31 11:09:03;;;;;;;5.07;2.75;;;;;;;10.55;100.00;94301.75;5121036;27;20080;-87
2023/12/31 11:11:30;;;;;;;4.50;3.05;;;;;;;10.52;100.00;94291.03;5123872;27;20130;-86
2023/12/31 11:13:56;;;;;;;7.22;3.47;;;;;;;10.42;100.00;94284.78;5140267;27;20079;-86
2023/12/31 11:16:34;;;;;;;6.80;3.40;;;;;;;10.33;100.00;94292.38;5123805;27;20023;-86
2023/12/31 11:19:21;;;;;;;6.53;3.90;;;;;;;10.24;100.00;94278.25;5123568;27;20026;-86
2023/12/31 11:22:02;;;;;;;6.68;3.53;;;;;;;10.16;100.00;94276.97;5140246;27;20063;-87